Time;durP1;ratioP1;P1;durP2;ratioP2;P2;SDS_P1;SDS_P2;PMS_P1;PMS_P2;Temp;Humidity;BMP_temperature;BMP_pressure;BME280_temperature;BME280_humidity;BME280_pressure;Samples;Min_cycle;Max_cycle;Signal;HPM_P1;HPM_P2
2021/01/06 00:01:29;;;;;;;5.47;4.97;;;1.80;99.90;;;;;;5088010;28;20243;-74
2021/01/06 00:03:56;;;;;;;5.15;4.75;;;1.70;99.90;;;;;;5085016;28;20225;-74
2021/01/06 00:06:26;;;;;;;5.22;4.93;;;1.70;99.90;;;;;;5084008;28;20305;-74
2021/01/06 00:08:53;;;;;;;5.65;5.15;;;1.70;99.90;;;;;;5086332;28;20232;-73
2021/01/06 00:11:22;;;;;;;5.10;4.70;;;1.70;99.90;;;;;;5083390;28;20221;-74
2021/01/06 00:13:50;;;;;;;5.43;5.03;;;1.60;99.90;;;;;;5087801;28;20291;-74
2021/01/06 00:16:16;;;;;;;5.22;4.90;;;1.60;99.90;;;;;;5069201;28;20225;-74
2021/01/06 00:18:45;;;;;;;5.50;5.07;;;1.60;99.90;;;;;;5074097;28;20433;-74
2021/01/06 00:21:12;;;;;;;5.80;5.35;;;1.50;99.90;;;;;;5072512;28;20847;-74
2021/01/06 00:23:38;;;;;;;5.78;5.38;;;1.50;99.90;;;;;;5059193;28;20651;-74
2021/01/06 00:26:05;;;;;;;5.72;5.22;;;1.40;99.90;;;;;;5080274;27;20487;-75
2021/01/06 00:28:31;;;;;;;6.25;5.75;;;1.40;99.90;;;;;;5090461;27;20764;-74
2021/01/06 00:30:59;;;;;;;6.30;5.80;;;1.50;99.90;;;;;;5095036;27;20227;-74
2021/01/06 00:33:29;;;;;;;5.70;5.30;;;1.50;99.90;;;;;;5085234;27;20217;-74
2021/01/06 00:35:58;;;;;;;5.72;5.32;;;1.40;99.90;;;;;;5108086;27;20222;-74
2021/01/06 00:38:26;;;;;;;5.72;5.22;;;1.40;99.90;;;;;;5092831;27;20708;-74
2021/01/06 00:40:52;;;;;;;5.70;5.20;;;1.40;99.90;;;;;;5093502;27;20278;-74
2021/01/06 00:43:19;;;;;;;6.50;5.90;;;1.40;99.90;;;;;;5090149;27;20245;-74
2021/01/06 00:45:45;;;;;;;5.85;5.38;;;1.40;99.90;;;;;;5081370;28;20213;-74
2021/01/06 00:48:13;;;;;;;5.32;4.93;;;1.40;99.90;;;;;;5084675;28;20232;-74
2021/01/06 00:50:40;;;;;;;5.20;4.80;;;1.50;99.90;;;;;;5085852;28;20217;-74
2021/01/06 00:53:12;;;;;;;5.20;4.90;;;1.40;99.90;;;;;;5086552;28;20738;-74
2021/01/06 00:55:38;;;;;;;5.05;4.75;;;1.40;99.90;;;;;;5081728;28;20228;-74
2021/01/06 00:58:05;;;;;;;4.45;4.15;;;1.40;99.90;;;;;;5083319;28;20240;-74
2021/01/06 01:00:32;;;;;;;5.20;4.80;;;1.40;99.90;;;;;;5084228;27;20236;-74
2021/01/06 01:02:58;;;;;;;4.63;4.30;;;1.40;99.90;;;;;;5094704;27;20228;-74
2021/01/06 01:05:27;;;;;;;3.97;3.67;;;1.40;99.90;;;;;;5096481;27;20219;-74
2021/01/06 01:07:54;;;;;;;4.15;3.85;;;1.40;99.90;;;;;;5090060;27;20220;-73
2021/01/06 01:10:27;;;;;;;4.40;4.10;;;1.30;99.90;;;;;;5089155;27;20224;-74
2021/01/06 01:12:54;;;;;;;4.05;3.75;;;1.30;99.90;;;;;;5090100;27;20224;-75
2021/01/06 01:15:22;;;;;;;3.88;3.58;;;1.30;99.90;;;;;;5092942;27;20306;-74
2021/01/06 01:17:49;;;;;;;3.70;3.50;;;1.30;99.90;;;;;;5092923;27;20237;-74
2021/01/06 01:20:16;;;;;;;4.32;4.03;;;1.30;99.90;;;;;;5091853;27;20221;-73
2021/01/06 01:22:44;;;;;;;4.43;4.13;;;1.30;99.90;;;;;;5089866;27;20228;-74
2021/01/06 01:25:12;;;;;;;4.60;4.30;;;1.30;99.90;;;;;;5079701;27;20222;-75
2021/01/06 01:27:40;;;;;;;4.60;4.30;;;1.30;99.90;;;;;;5070694;28;20256;-74
2021/01/06 01:30:09;;;;;;;4.47;4.20;;;1.30;99.90;;;;;;5076551;28;20611;-74
2021/01/06 01:32:36;;;;;;;4.38;4.07;;;1.30;99.90;;;;;;5092829;28;20209;-74
2021/01/06 01:35:05;;;;;;;4.28;4.00;;;1.30;99.90;;;;;;5091734;28;20222;-74
2021/01/06 01:37:31;;;;;;;4.43;4.15;;;1.30;99.90;;;;;;5079442;28;20222;-74
2021/01/06 01:39:58;;;;;;;4.50;4.20;;;1.30;99.90;;;;;;5086864;27;20232;-74
2021/01/06 01:42:25;;;;;;;4.57;4.18;;;1.30;99.90;;;;;;5086597;27;20220;-74
2021/01/06 01:45:00;;;;;;;4.30;4.05;;;1.30;99.90;;;;;;5091074;27;20236;-74
2021/01/06 01:47:34;;;;;;;4.38;4.18;;;1.30;99.90;;;;;;5085965;27;20572;-74
2021/01/06 01:50:04;;;;;;;4.30;4.10;;;1.30;99.90;;;;;;5090311;27;20690;-74
2021/01/06 01:52:36;;;;;;;4.70;4.40;;;1.30;99.90;;;;;;5069615;28;20226;-74
2021/01/06 01:55:05;;;;;;;4.60;4.30;;;1.30;99.90;;;;;;5059578;28;20226;-74
2021/01/06 01:57:38;;;;;;;4.53;4.22;;;1.30;99.90;;;;;;5066606;28;20544;-74
2021/01/06 02:00:09;;;;;;;4.40;4.15;;;1.30;99.90;;;;;;5060439;28;20620;-74
2021/01/06 02:02:45;;;;;;;4.88;4.57;;;1.20;99.90;;;;;;5066209;28;20225;-74
2021/01/06 02:05:15;;;;;;;5.10;4.70;;;1.20;99.90;;;;;;5066170;28;20224;-73
2021/01/06 02:07:50;;;;;;;4.63;4.35;;;1.20;99.90;;;;;;5069102;28;20222;-74
2021/01/06 02:10:22;;;;;;;4.60;4.30;;;1.20;99.90;;;;;;5062661;28;20722;-74
2021/01/06 02:12:51;;;;;;;4.68;4.43;;;1.20;99.90;;;;;;5070017;28;20214;-74
2021/01/06 02:15:28;;;;;;;4.70;4.40;;;1.20;99.90;;;;;;5067478;28;20217;-74
2021/01/06 02:17:55;;;;;;;4.50;4.20;;;1.20;99.90;;;;;;5070580;28;21237;-74
2021/01/06 02:20:24;;;;;;;4.75;4.45;;;1.20;99.90;;;;;;5067185;28;20237;-75
2021/01/06 02:22:52;;;;;;;4.75;4.45;;;1.20;99.90;;;;;;5083833;28;21326;-75
2021/01/06 02:25:20;;;;;;;4.60;4.30;;;1.20;99.90;;;;;;5068899;28;20210;-75
2021/01/06 02:27:47;;;;;;;4.75;4.45;;;1.20;99.90;;;;;;5066210;28;20218;-74
2021/01/06 02:30:16;;;;;;;4.68;4.38;;;1.20;99.90;;;;;;5070916;28;20229;-73
2021/01/06 02:32:43;;;;;;;5.20;4.90;;;1.20;99.90;;;;;;5064544;28;20218;-74
2021/01/06 02:35:12;;;;;;;5.25;4.85;;;1.20;99.90;;;;;;5067777;28;20714;-74
2021/01/06 02:37:39;;;;;;;4.75;4.45;;;1.30;99.90;;;;;;5064855;28;20566;-74
2021/01/06 02:40:09;;;;;;;4.90;4.60;;;1.30;99.90;;;;;;5067844;28;20283;-74
2021/01/06 02:42:37;;;;;;;4.72;4.40;;;1.30;99.90;;;;;;5070008;28;20287;-74
2021/01/06 02:45:07;;;;;;;4.72;4.43;;;1.30;99.90;;;;;;5066470;28;20234;-74
2021/01/06 02:47:34;;;;;;;4.40;4.10;;;1.30;99.90;;;;;;5068271;28;20225;-74
2021/01/06 02:50:02;;;;;;;4.65;4.30;;;1.30;99.90;;;;;;5070053;28;20240;-74
2021/01/06 02:52:34;;;;;;;4.10;3.80;;;1.30;99.90;;;;;;5083659;27;20221;-74
2021/01/06 02:55:02;;;;;;;4.00;3.80;;;1.30;99.90;;;;;;5093612;27;20212;-74
2021/01/06 02:57:30;;;;;;;4.88;4.57;;;1.20;99.90;;;;;;5071554;27;20214;-74
2021/01/06 02:59:56;;;;;;;4.55;4.20;;;1.10;99.90;;;;;;5078778;28;20601;-74
2021/01/06 03:02:25;;;;;;;4.38;4.07;;;1.10;99.90;;;;;;5075300;28;20225;-74
2021/01/06 03:05:00;;;;;;;4.35;4.10;;;1.10;99.90;;;;;;5074670;28;20679;-73
2021/01/06 03:07:29;;;;;;;4.65;4.35;;;1.10;99.90;;;;;;5077940;28;20217;-74
2021/01/06 03:09:55;;;;;;;4.72;4.43;;;1.10;99.90;;;;;;5086544;28;20707;-75
2021/01/06 03:12:26;;;;;;;4.30;4.00;;;1.20;99.90;;;;;;5086156;28;20636;-74
2021/01/06 03:14:54;;;;;;;4.65;4.35;;;1.20;99.90;;;;;;5098846;28;20201;-74
2021/01/06 03:17:21;;;;;;;4.95;4.57;;;1.20;99.90;;;;;;5084253;28;20630;-74
2021/01/06 03:19:51;;;;;;;4.93;4.53;;;1.20;99.90;;;;;;5069041;28;20719;-74
2021/01/06 03:22:22;;;;;;;4.40;4.10;;;1.20;99.90;;;;;;5068089;28;20225;-74
2021/01/06 03:24:51;;;;;;;4.43;4.13;;;1.20;99.90;;;;;;5066950;28;20226;-74
2021/01/06 03:27:19;;;;;;;4.18;3.97;;;1.20;99.90;;;;;;5067087;28;20229;-74
2021/01/06 03:29:47;;;;;;;3.75;3.55;;;1.20;99.90;;;;;;5064757;28;20228;-74
2021/01/06 03:32:22;;;;;;;4.78;4.47;;;1.20;99.90;;;;;;5065295;28;20218;-74
2021/01/06 03:34:55;;;;;;;4.15;3.95;;;1.20;99.90;;;;;;5062735;28;20217;-74
2021/01/06 03:37:29;;;;;;;4.43;4.13;;;1.20;99.90;;;;;;5076427;27;20233;-73
2021/01/06 03:40:02;;;;;;;4.68;4.38;;;1.20;99.90;;;;;;5065250;28;20237;-73
2021/01/06 03:42:29;;;;;;;4.35;4.10;;;1.20;99.90;;;;;;5072056;28;20247;-74
2021/01/06 03:44:56;;;;;;;4.45;4.15;;;1.20;99.90;;;;;;5067273;28;20226;-74
2021/01/06 03:47:27;;;;;;;4.22;3.92;;;1.20;99.90;;;;;;5064690;28;20226;-74
2021/01/06 03:50:01;;;;;;;4.07;3.88;;;1.20;99.90;;;;;;5066523;28;20217;-73
2021/01/06 03:52:56;;;;;;;4.40;4.10;;;1.20;99.90;;;;;;5088624;28;20225;-74
2021/01/06 03:55:31;;;;;;;4.38;4.07;;;1.20;99.90;;;;;;5088276;28;20229;-74
2021/01/06 03:57:59;;;;;;;4.30;4.07;;;1.20;99.90;;;;;;5085415;28;20271;-74
2021/01/06 04:00:40;;;;;;;4.45;4.05;;;1.20;99.90;;;;;;5084528;28;20222;-74
2021/01/06 04:03:20;;;;;;;4.40;4.10;;;1.20;99.90;;;;;;5085812;28;20270;-74
2021/01/06 04:05:47;;;;;;;4.45;4.15;;;1.20;99.90;;;;;;5085399;28;20255;-74
2021/01/06 04:08:20;;;;;;;4.70;4.40;;;1.20;99.90;;;;;;5093155;28;20255;-75
2021/01/06 04:10:53;;;;;;;5.20;4.80;;;1.20;99.90;;;;;;5096874;28;20275;-74
2021/01/06 04:13:20;;;;;;;4.00;3.80;;;1.20;99.90;;;;;;5086145;28;20604;-74
2021/01/06 04:15:46;;;;;;;3.92;3.72;;;1.20;99.90;;;;;;5085114;28;20253;-74
2021/01/06 04:18:14;;;;;;;4.30;4.10;;;1.20;99.90;;;;;;5084522;28;20225;-74
2021/01/06 04:20:41;;;;;;;4.80;4.50;;;1.20;99.90;;;;;;5088712;28;20217;-74
2021/01/06 04:23:10;;;;;;;4.53;4.22;;;1.20;99.90;;;;;;5087702;28;20229;-74
2021/01/06 04:25:39;;;;;;;4.55;4.35;;;1.20;99.90;;;;;;5086905;28;20218;-75
2021/01/06 04:28:08;;;;;;;4.65;4.45;;;1.20;99.90;;;;;;5081651;28;20233;-74
2021/01/06 04:30:37;;;;;;;4.35;4.10;;;1.20;99.90;;;;;;5087345;28;20249;-74
2021/01/06 04:33:06;;;;;;;4.68;4.38;;;1.20;99.90;;;;;;5079337;28;20226;-73
2021/01/06 04:35:34;;;;;;;4.22;4.03;;;1.20;99.90;;;;;;5090055;28;20232;-74
2021/01/06 04:38:01;;;;;;;4.45;4.25;;;1.20;99.90;;;;;;5072347;28;20226;-74
2021/01/06 04:40:34;;;;;;;4.20;4.00;;;1.20;99.90;;;;;;5064627;28;20236;-74
2021/01/06 04:43:06;;;;;;;4.43;4.13;;;1.30;99.90;;;;;;5068556;28;20679;-74
2021/01/06 04:45:38;;;;;;;4.60;4.30;;;1.20;99.90;;;;;;5074659;27;20214;-74
2021/01/06 04:48:27;;;;;;;4.47;4.25;;;1.20;99.90;;;;;;5081788;28;20221;-73
2021/01/06 04:51:19;;;;;;;4.88;4.57;;;1.20;99.90;;;;;;5085637;28;20868;-73
2021/01/06 04:54:03;;;;;;;4.25;4.05;;;1.20;99.90;;;;;;5063025;28;20784;-74
2021/01/06 04:56:46;;;;;;;4.70;4.40;;;1.20;99.90;;;;;;5063955;28;20218;-75
2021/01/06 04:59:28;;;;;;;4.25;3.95;;;1.20;99.90;;;;;;5064942;28;20240;-74
2021/01/06 05:02:12;;;;;;;3.85;3.65;;;1.20;99.90;;;;;;5070085;28;20201;-75
2021/01/06 05:04:58;;;;;;;4.53;4.22;;;1.20;99.90;;;;;;5090231;28;20271;-74
2021/01/06 05:07:37;;;;;;;4.53;4.25;;;1.20;99.90;;;;;;5094753;28;20232;-74
2021/01/06 05:10:16;;;;;;;4.25;3.95;;;1.20;99.90;;;;;;5089406;28;20750;-74
2021/01/06 05:12:47;;;;;;;4.57;4.28;;;1.20;99.90;;;;;;5096135;28;20223;-74
2021/01/06 05:15:29;;;;;;;4.90;4.60;;;1.20;99.90;;;;;;5090825;28;20221;-74
2021/01/06 05:17:56;;;;;;;4.45;4.25;;;1.20;99.90;;;;;;5061564;28;20213;-74
2021/01/06 05:20:22;;;;;;;4.60;4.30;;;1.20;99.90;;;;;;5064522;28;20233;-74
2021/01/06 05:22:50;;;;;;;4.22;4.03;;;1.20;99.90;;;;;;5065773;28;20255;-75
2021/01/06 05:25:17;;;;;;;4.88;4.57;;;1.10;99.90;;;;;;5064665;28;20253;-74
2021/01/06 05:27:46;;;;;;;4.15;3.92;;;1.20;99.90;;;;;;5080075;27;20714;-74
2021/01/06 05:30:21;;;;;;;4.80;4.50;;;1.20;99.90;;;;;;5085291;27;20236;-74
2021/01/06 05:32:48;;;;;;;4.60;4.30;;;1.20;99.90;;;;;;5065285;28;20221;-74
2021/01/06 05:35:18;;;;;;;4.47;4.28;;;1.20;99.90;;;;;;5059377;28;20218;-74
2021/01/06 05:37:49;;;;;;;4.07;3.88;;;1.20;99.90;;;;;;5066461;28;20217;-74
2021/01/06 05:40:16;;;;;;;4.20;3.92;;;1.20;99.90;;;;;;5070580;28;20904;-74
2021/01/06 05:42:50;;;;;;;4.80;4.50;;;1.20;99.90;;;;;;5066563;28;20222;-74
2021/01/06 05:45:18;;;;;;;4.50;4.20;;;1.20;99.90;;;;;;5068145;28;20252;-74
2021/01/06 05:47:50;;;;;;;4.35;4.15;;;1.20;99.90;;;;;;5068400;28;20218;-74
2021/01/06 05:50:21;;;;;;;5.05;4.75;;;1.20;99.90;;;;;;5064677;28;20222;-74
2021/01/06 05:52:57;;;;;;;4.90;4.60;;;1.20;99.90;;;;;;5068177;28;20210;-74
2021/01/06 05:55:25;;;;;;;4.88;4.57;;;1.20;99.90;;;;;;5072971;28;20228;-75
2021/01/06 05:58:02;;;;;;;6.05;5.55;;;1.30;99.90;;;;;;5070953;28;20229;-74
2021/01/06 06:00:45;;;;;;;6.60;6.00;;;1.30;99.90;;;;;;5067621;28;20223;-74
2021/01/06 06:03:39;;;;;;;6.47;5.88;;;1.30;99.90;;;;;;5074173;28;20308;-74
2021/01/06 06:06:43;;;;;;;6.93;6.32;;;1.30;99.90;;;;;;5066209;28;20214;-74
2021/01/06 06:09:13;;;;;;;6.50;6.00;;;1.30;99.90;;;;;;5075604;28;20223;-74
2021/01/06 06:12:13;;;;;;;6.53;5.82;;;1.30;99.90;;;;;;5087359;28;20221;-74
2021/01/06 06:15:13;;;;;;;6.15;5.65;;;1.30;99.90;;;;;;5086280;28;20210;-74
2021/01/06 06:18:14;;;;;;;6.72;6.13;;;1.30;99.90;;;;;;5090884;28;20767;-74
2021/01/06 06:21:01;;;;;;;6.85;6.25;;;1.30;99.90;;;;;;5084694;28;20263;-74
2021/01/06 06:23:43;;;;;;;6.25;5.70;;;1.30;99.90;;;;;;5088970;28;20228;-74
2021/01/06 06:26:15;;;;;;;6.32;5.93;;;1.20;99.90;;;;;;5066422;28;20229;-74
2021/01/06 06:28:49;;;;;;;6.40;5.90;;;1.20;99.90;;;;;;5073152;28;20222;-74
2021/01/06 06:31:29;;;;;;;6.28;5.78;;;1.20;99.90;;;;;;5067323;28;20230;-74
2021/01/06 06:33:58;;;;;;;5.57;5.18;;;1.20;99.90;;;;;;5059593;28;20225;-74
2021/01/06 06:36:27;;;;;;;5.55;5.15;;;1.10;99.90;;;;;;5066228;28;20270;-74
2021/01/06 06:38:55;;;;;;;6.07;5.68;;;1.10;99.90;;;;;;5070899;28;20220;-73
2021/01/06 06:41:30;;;;;;;6.28;5.78;;;1.00;99.90;;;;;;5084178;28;20248;-73
2021/01/06 06:44:29;;;;;;;5.78;5.38;;;1.00;99.90;;;;;;5068295;28;20305;-74
2021/01/06 06:47:13;;;;;;;6.60;6.10;;;1.00;99.90;;;;;;5061146;28;20218;-74
2021/01/06 06:50:05;;;;;;;5.82;5.43;;;0.90;99.90;;;;;;5080845;28;20225;-75
2021/01/06 06:52:37;;;;;;;5.60;5.20;;;0.90;99.90;;;;;;5062887;28;20211;-74
2021/01/06 06:55:24;;;;;;;5.35;4.95;;;1.00;99.90;;;;;;5060129;28;20230;-74
2021/01/06 06:57:57;;;;;;;5.38;4.97;;;1.00;99.90;;;;;;5064110;28;20893;-73
2021/01/06 07:00:28;;;;;;;5.43;5.13;;;1.10;99.90;;;;;;5065954;28;20287;-75
2021/01/06 07:02:58;;;;;;;6.20;5.80;;;1.10;99.90;;;;;;5066175;28;20899;-73
2021/01/06 07:05:30;;;;;;;5.40;5.00;;;1.20;99.90;;;;;;5090310;27;20576;-75
2021/01/06 07:07:57;;;;;;;5.60;5.20;;;1.20;99.90;;;;;;5082734;27;20220;-74
2021/01/06 07:10:27;;;;;;;5.13;4.80;;;1.20;99.90;;;;;;5094334;27;20416;-74
2021/01/06 07:12:56;;;;;;;5.90;5.50;;;1.20;99.90;;;;;;5086970;27;20220;-74
2021/01/06 07:15:31;;;;;;;5.57;5.18;;;1.20;99.90;;;;;;5078207;27;20663;-74
2021/01/06 07:17:58;;;;;;;6.22;5.78;;;1.30;99.90;;;;;;5060007;28;20221;-74
2021/01/06 07:20:38;;;;;;;6.60;6.00;;;1.30;99.90;;;;;;5062522;28;20229;-74
2021/01/06 07:23:16;;;;;;;6.05;5.55;;;1.30;99.90;;;;;;5058859;28;20691;-74
2021/01/06 07:25:45;;;;;;;6.65;6.15;;;1.30;99.90;;;;;;5058403;28;20220;-74
2021/01/06 07:28:15;;;;;;;7.22;6.38;;;1.20;99.90;;;;;;5062760;28;20276;-75
2021/01/06 07:30:47;;;;;;;7.57;6.88;;;1.30;99.90;;;;;;5059793;28;20904;-74
2021/01/06 07:33:27;;;;;;;7.25;6.65;;;1.30;99.90;;;;;;5057019;28;20226;-74
2021/01/06 07:35:54;;;;;;;7.00;6.43;;;1.30;99.90;;;;;;5058893;28;20313;-74
2021/01/06 07:38:21;;;;;;;6.38;5.97;;;1.40;99.90;;;;;;5060568;28;20233;-74
2021/01/06 07:40:57;;;;;;;6.70;6.20;;;1.50;99.90;;;;;;5066482;28;20209;-74
2021/01/06 07:43:26;;;;;;;7.15;6.65;;;1.50;99.90;;;;;;5065240;28;20251;-73
2021/01/06 07:46:12;;;;;;;6.65;6.20;;;1.60;99.90;;;;;;5060353;28;20222;-74
2021/01/06 07:49:08;;;;;;;6.30;5.90;;;1.60;99.90;;;;;;5056986;28;20226;-75
2021/01/06 07:51:53;;;;;;;7.53;6.93;;;1.70;99.90;;;;;;5051992;28;20222;-72
2021/01/06 07:54:28;;;;;;;6.68;6.18;;;1.70;99.90;;;;;;5062817;28;20276;-74
2021/01/06 07:57:04;;;;;;;7.38;6.78;;;1.70;99.90;;;;;;5060793;28;20232;-72
2021/01/06 07:59:51;;;;;;;6.68;6.18;;;1.70;99.90;;;;;;5059080;28;20445;-74
2021/01/06 08:02:25;;;;;;;5.38;4.97;;;1.80;99.90;;;;;;5080113;28;20646;-73
2021/01/06 08:05:15;;;;;;;6.55;6.00;;;1.90;99.90;;;;;;5082050;28;20226;-73
2021/01/06 08:07:42;;;;;;;7.57;6.90;;;2.00;99.90;;;;;;5077665;28;20707;-75
2021/01/06 08:10:27;;;;;;;7.30;6.80;;;2.00;99.90;;;;;;5064492;28;20230;-74
2021/01/06 08:13:26;;;;;;;6.60;6.18;;;2.00;99.90;;;;;;5063162;28;20226;-74
2021/01/06 08:15:56;;;;;;;6.60;6.10;;;2.00;99.90;;;;;;5059818;28;20222;-75
2021/01/06 08:18:32;;;;;;;6.13;5.72;;;2.00;99.90;;;;;;5076538;28;20232;-74
2021/01/06 08:21:16;;;;;;;5.45;5.13;;;1.90;99.90;;;;;;5079337;28;20217;-74
2021/01/06 08:24:06;;;;;;;6.40;5.80;;;1.90;99.90;;;;;;5067900;28;20307;-72
2021/01/06 08:26:35;;;;;;;6.35;5.95;;;1.90;99.90;;;;;;5056982;28;20295;-74
2021/01/06 08:29:15;;;;;;;6.45;6.03;;;2.00;99.90;;;;;;5064361;28;20228;-75
2021/01/06 08:31:42;;;;;;;6.15;5.75;;;2.00;99.90;;;;;;5078359;28;20228;-73
2021/01/06 08:34:20;;;;;;;6.63;6.10;;;1.90;99.90;;;;;;5071888;28;20578;-73
2021/01/06 08:36:58;;;;;;;6.63;6.13;;;1.90;99.90;;;;;;5080484;28;20216;-74
2021/01/06 08:39:26;;;;;;;6.22;5.82;;;1.90;99.90;;;;;;5079039;28;20217;-74
2021/01/06 08:41:55;;;;;;;5.70;5.35;;;1.90;99.90;;;;;;5082779;28;20225;-73
2021/01/06 08:44:31;;;;;;;7.07;6.57;;;1.90;99.90;;;;;;5079289;28;20228;-76
2021/01/06 08:46:59;;;;;;;7.80;7.20;;;1.90;99.90;;;;;;5078665;28;20233;-74
2021/01/06 08:49:29;;;;;;;6.47;6.07;;;1.80;99.90;;;;;;5079715;28;20744;-74
2021/01/06 08:52:10;;;;;;;7.05;6.55;;;1.90;99.90;;;;;;5092251;28;20540;-74
2021/01/06 08:54:36;;;;;;;7.10;6.60;;;2.00;99.90;;;;;;5082795;28;20221;-75
2021/01/06 08:57:05;;;;;;;7.45;6.85;;;2.20;99.90;;;;;;5078524;28;20225;-74
2021/01/06 08:59:36;;;;;;;7.07;6.50;;;2.30;99.90;;;;;;5077842;28;20218;-75
2021/01/06 09:02:04;;;;;;;7.78;7.22;;;2.40;99.90;;;;;;5073614;28;20358;-74
2021/01/06 09:04:39;;;;;;;7.15;6.38;;;2.50;99.90;;;;;;5079359;28;20615;-73
2021/01/06 09:07:17;;;;;;;8.73;8.02;;;2.50;99.90;;;;;;5079629;28;20220;-75
2021/01/06 09:10:12;;;;;;;8.55;7.88;;;2.60;99.90;;;;;;5080946;27;20223;-74
2021/01/06 09:12:58;;;;;;;10.77;9.88;;;2.50;99.90;;;;;;5077346;27;20331;-75
2021/01/06 09:15:40;;;;;;;16.23;14.65;;;2.60;99.90;;;;;;5078373;27;20278;-74
2021/01/06 09:18:13;;;;;;;20.17;18.15;;;2.70;99.90;;;;;;5057898;28;20271;-73
2021/01/06 09:20:55;;;;;;;17.15;15.45;;;2.70;99.90;;;;;;5057341;28;20234;-74
2021/01/06 09:23:22;;;;;;;18.70;16.80;;;2.80;99.90;;;;;;5058792;28;20237;-73
2021/01/06 09:25:49;;;;;;;16.38;14.88;;;3.00;99.90;;;;;;5088194;28;20366;-74
2021/01/06 09:28:17;;;;;;;16.60;15.02;;;3.00;99.90;;;;;;5074249;28;20225;-74
2021/01/06 09:30:45;;;;;;;18.60;16.92;;;3.10;99.90;;;;;;5072409;28;20226;-73
2021/01/06 09:33:18;;;;;;;15.82;14.38;;;3.30;99.90;;;;;;5075524;28;20218;-75
2021/01/06 09:35:46;;;;;;;13.07;11.88;;;3.50;99.90;;;;;;5075403;28;20225;-74
2021/01/06 09:38:21;;;;;;;11.40;10.40;;;3.70;99.90;;;;;;5080981;28;20723;-75
2021/01/06 09:40:49;;;;;;;11.60;10.68;;;3.70;99.90;;;;;;5082467;28;20758;-75
2021/01/06 09:43:23;;;;;;;11.32;10.40;;;3.60;99.90;;;;;;5076891;28;20264;-74
2021/01/06 09:45:50;;;;;;;12.20;11.05;;;3.50;99.90;;;;;;5079760;28;20315;-74
2021/01/06 09:48:19;;;;;;;11.02;10.10;;;3.40;99.90;;;;;;5071682;28;20238;-75
2021/01/06 09:50:50;;;;;;;10.38;9.48;;;3.40;99.90;;;;;;5074016;28;20228;-76
2021/01/06 09:53:19;;;;;;;9.30;8.50;;;3.40;99.90;;;;;;5077331;28;20225;-74
2021/01/06 09:55:50;;;;;;;9.27;8.40;;;3.40;99.90;;;;;;5081044;28;20239;-74
2021/01/06 09:58:28;;;;;;;8.52;7.85;;;3.40;99.90;;;;;;5073245;28;20217;-74
2021/01/06 10:01:03;;;;;;;9.13;8.32;;;3.50;99.90;;;;;;5079845;28;20576;-74
2021/01/06 10:03:31;;;;;;;9.20;8.40;;;3.60;99.90;;;;;;5063514;28;20631;-74
2021/01/06 10:06:17;;;;;;;10.55;9.50;;;3.70;99.90;;;;;;5063556;28;20300;-74
2021/01/06 10:08:49;;;;;;;10.48;9.55;;;3.80;99.90;;;;;;5071621;28;20220;-75
2021/01/06 10:11:40;;;;;;;11.35;10.25;;;3.80;99.90;;;;;;5070652;28;20229;-76
2021/01/06 10:14:27;;;;;;;11.20;10.20;;;3.70;99.90;;;;;;5076215;27;20305;-75
2021/01/06 10:16:58;;;;;;;12.40;11.20;;;3.60;99.90;;;;;;5083267;27;20221;-75
2021/01/06 10:19:43;;;;;;;12.05;10.95;;;3.40;99.90;;;;;;5095478;27;20232;-75
2021/01/06 10:22:25;;;;;;;11.90;10.70;;;3.10;99.90;;;;;;5074965;27;20225;-74
2021/01/06 10:25:09;;;;;;;12.18;10.98;;;2.80;99.90;;;;;;5080571;27;20794;-73
2021/01/06 10:27:39;;;;;;;11.32;10.25;;;2.50;99.90;;;;;;5083183;27;20526;-74
2021/01/06 10:30:11;;;;;;;11.25;10.35;;;2.30;99.90;;;;;;5082588;27;20226;-73
2021/01/06 10:32:44;;;;;;;10.30;9.50;;;2.40;99.90;;;;;;5081666;27;20213;-75
2021/01/06 10:35:36;;;;;;;10.73;9.93;;;2.50;99.90;;;;;;5083560;27;20906;-75
2021/01/06 10:38:27;;;;;;;9.77;8.98;;;2.70;99.90;;;;;;5074090;27;20226;-75
2021/01/06 10:40:56;;;;;;;9.43;8.63;;;3.00;99.90;;;;;;5059048;28;20226;-74
2021/01/06 10:43:42;;;;;;;9.23;8.52;;;3.20;99.90;;;;;;5062246;28;20241;-75
2021/01/06 10:46:34;;;;;;;10.27;9.48;;;3.30;99.90;;;;;;5080223;27;20221;-74
2021/01/06 10:49:01;;;;;;;10.27;9.35;;;3.50;99.90;;;;;;5066086;28;20220;-74
2021/01/06 10:51:49;;;;;;;9.82;9.02;;;3.50;99.90;;;;;;5061622;28;20640;-74
2021/01/06 10:54:24;;;;;;;11.27;10.38;;;3.60;99.90;;;;;;5063284;28;20210;-74
2021/01/06 10:56:52;;;;;;;14.82;13.52;;;3.70;99.90;;;;;;5062151;28;20265;-74
2021/01/06 10:59:18;;;;;;;13.88;12.68;;;3.80;99.90;;;;;;5056586;28;20229;-74
2021/01/06 11:02:21;;;;;;;14.07;12.73;;;4.10;99.90;;;;;;5059816;28;20238;-75
2021/01/06 11:05:05;;;;;;;13.75;12.45;;;4.60;99.90;;;;;;5059489;28;20219;-75
2021/01/06 11:07:49;;;;;;;13.65;12.40;;;5.30;99.90;;;;;;5059206;28;20213;-74
2021/01/06 11:10:25;;;;;;;12.32;11.25;;;6.30;99.90;;;;;;5081612;28;20225;-76
2021/01/06 11:13:16;;;;;;;11.55;10.55;;;6.50;99.90;;;;;;5090648;28;20228;-75
2021/01/06 11:15:52;;;;;;;11.00;10.00;;;6.20;99.90;;;;;;5079377;28;20274;-74
2021/01/06 11:18:34;;;;;;;11.07;10.15;;;6.00;99.90;;;;;;5080037;28;20528;-74
2021/01/06 11:21:14;;;;;;;9.95;9.15;;;5.90;99.90;;;;;;5057445;28;20355;-75
2021/01/06 11:23:48;;;;;;;10.15;9.15;;;5.60;99.90;;;;;;5056647;28;20698;-75
2021/01/06 11:26:50;;;;;;;9.65;8.85;;;5.30;99.90;;;;;;5059194;28;20222;-75
2021/01/06 11:29:49;;;;;;;10.32;9.27;;;5.20;99.90;;;;;;5058224;28;20240;-73
2021/01/06 11:32:39;;;;;;;10.68;9.32;;;5.10;99.90;;;;;;5053929;28;20211;-75
2021/01/06 11:35:41;;;;;;;9.95;8.82;;;5.10;99.90;;;;;;5078663;27;20217;-74
2021/01/06 11:38:45;;;;;;;10.38;9.38;;;5.10;99.90;;;;;;5084928;27;20749;-75
2021/01/06 11:41:13;;;;;;;11.88;10.88;;;5.20;99.90;;;;;;5074886;27;20216;-74
2021/01/06 11:44:09;;;;;;;10.20;9.20;;;5.20;99.90;;;;;;5081176;27;20362;-75
2021/01/06 11:46:46;;;;;;;10.77;9.88;;;5.20;99.90;;;;;;5086140;27;20302;-74
2021/01/06 11:49:32;;;;;;;10.68;9.65;;;5.20;99.90;;;;;;5062706;28;20282;-74
2021/01/06 11:52:44;;;;;;;10.23;9.27;;;5.20;99.90;;;;;;5054413;28;20318;-73
2021/01/06 11:55:36;;;;;;;9.48;8.57;;;5.20;99.90;;;;;;5079413;27;20216;-74
2021/01/06 11:58:22;;;;;;;9.45;8.65;;;5.20;99.90;;;;;;5083626;27;20225;-75
2021/01/06 12:01:11;;;;;;;9.77;8.93;;;5.40;99.90;;;;;;5079474;27;20518;-75
2021/01/06 12:04:22;;;;;;;10.45;9.55;;;5.50;99.90;;;;;;5078253;28;20217;-73
2021/01/06 12:07:02;;;;;;;9.77;8.88;;;5.40;99.90;;;;;;4989093;28;20240;-74
2021/01/06 12:09:41;;;;;;;9.88;9.05;;;5.30;99.90;;;;;;4993190;28;20235;-74
2021/01/06 12:12:40;;;;;;;9.85;8.98;;;5.20;99.90;;;;;;5053361;27;20235;-73
2021/01/06 12:15:27;;;;;;;9.38;8.57;;;5.10;99.90;;;;;;5080695;28;20225;-75
2021/01/06 12:17:58;;;;;;;10.55;9.60;;;5.10;99.90;;;;;;5068501;28;20893;-74
2021/01/06 12:20:26;;;;;;;9.45;8.68;;;5.20;99.90;;;;;;5064676;28;20719;-74
2021/01/06 12:23:20;;;;;;;9.55;8.75;;;5.20;99.90;;;;;;5055564;28;20276;-75
2021/01/06 12:25:49;;;;;;;10.40;9.50;;;5.10;99.90;;;;;;5082316;27;20225;-75
2021/01/06 12:28:29;;;;;;;8.98;8.27;;;5.10;99.90;;;;;;5087533;27;20218;-72
2021/01/06 12:31:10;;;;;;;9.95;9.15;;;5.00;99.90;;;;;;5058816;28;20222;-75
2021/01/06 12:33:44;;;;;;;10.68;9.40;;;4.90;99.90;;;;;;5058391;28;20588;-74
2021/01/06 12:36:32;;;;;;;9.27;8.50;;;4.80;99.90;;;;;;5059899;28;20840;-74
2021/01/06 12:39:35;;;;;;;9.65;8.85;;;4.60;99.90;;;;;;5061560;28;20218;-74
2021/01/06 12:42:06;;;;;;;9.10;8.32;;;4.50;99.90;;;;;;5035827;28;20237;-74
2021/01/06 12:44:35;;;;;;;8.82;8.13;;;4.40;99.90;;;;;;5051646;28;20731;-75
2021/01/06 12:47:07;;;;;;;10.07;9.27;;;4.50;99.90;;;;;;5043783;28;20256;-75
2021/01/06 12:49:57;;;;;;;9.90;9.02;;;4.50;99.90;;;;;;5057038;28;20226;-75
2021/01/06 12:52:30;;;;;;;9.50;8.70;;;4.60;99.90;;;;;;5054510;28;20218;-74
2021/01/06 12:55:07;;;;;;;9.25;8.45;;;4.60;99.90;;;;;;5062165;28;20674;-74
2021/01/06 12:57:44;;;;;;;9.02;8.32;;;4.50;99.90;;;;;;5080589;27;20232;-74
2021/01/06 13:00:27;;;;;;;8.77;8.07;;;4.40;99.90;;;;;;5084776;27;20242;-74
2021/01/06 13:03:29;;;;;;;9.20;8.50;;;4.30;99.90;;;;;;5083064;27;20224;-74
2021/01/06 13:06:03;;;;;;;10.15;9.18;;;4.30;99.90;;;;;;5088667;27;20223;-74
2021/01/06 13:08:53;;;;;;;10.57;9.50;;;4.10;99.90;;;;;;5085469;27;20217;-75
2021/01/06 13:11:30;;;;;;;10.43;9.48;;;4.20;99.90;;;;;;5087246;27;20266;-75
2021/01/06 13:14:21;;;;;;;9.82;8.93;;;4.20;99.90;;;;;;5084816;27;20743;-74
2021/01/06 13:16:56;;;;;;;9.88;8.98;;;4.30;99.90;;;;;;5064761;27;20271;-75
2021/01/06 13:19:31;;;;;;;10.05;9.15;;;4.20;99.90;;;;;;5057338;28;20873;-75
2021/01/06 13:22:19;;;;;;;10.43;9.45;;;4.30;99.90;;;;;;5072153;28;20286;-75
2021/01/06 13:24:51;;;;;;;10.20;9.30;;;4.30;99.90;;;;;;5078393;28;20285;-74
2021/01/06 13:27:53;;;;;;;12.63;11.43;;;4.40;99.90;;;;;;5065502;28;20232;-75
2021/01/06 13:30:24;;;;;;;12.52;11.32;;;4.40;99.90;;;;;;5053799;27;20322;-73
2021/01/06 13:32:59;;;;;;;11.77;10.63;;;4.40;99.90;;;;;;5087537;27;20228;-75
2021/01/06 13:35:31;;;;;;;11.93;10.82;;;4.30;99.90;;;;;;5056449;28;20221;-76